createdAt,value
2023-03-01T00:02:20.566Z,2.60
2023-03-01T00:04:48.342Z,3.17
2023-03-01T00:07:15.967Z,3.10
2023-03-01T00:09:43.621Z,4.65
2023-03-01T00:12:12.252Z,5.17
2023-03-01T00:14:40.004Z,6.30
2023-03-01T00:17:07.761Z,8.57
2023-03-01T00:19:35.485Z,7.93
2023-03-01T00:22:03.255Z,5.90
2023-03-01T00:24:30.959Z,2.80
2023-03-01T00:26:58.962Z,4.18
2023-03-01T00:29:27.928Z,2.40
2023-03-01T00:31:55.654Z,5.30
2023-03-01T00:34:23.384Z,2.95
2023-03-01T00:36:51.118Z,3.63
2023-03-01T00:39:18.744Z,5.18
2023-03-01T00:41:46.492Z,5.10
2023-03-01T00:44:14.171Z,3.43
2023-03-01T00:46:41.916Z,5.30
2023-03-01T00:49:09.678Z,3.88
2023-03-01T00:51:37.377Z,3.88
2023-03-01T00:54:05.262Z,3.63
2023-03-01T00:56:33.369Z,3.08
2023-03-01T00:59:01.334Z,6.82
2023-03-01T01:01:32.689Z,4.10
2023-03-01T01:04:01.428Z,3.95
2023-03-01T01:06:33.076Z,5.13
2023-03-01T01:09:01.166Z,4.37
2023-03-01T01:11:29.505Z,4.38
2023-03-01T01:13:57.278Z,4.15
2023-03-01T01:16:25.460Z,3.97
2023-03-01T01:18:53.232Z,2.90
2023-03-01T01:21:21.678Z,4.22
2023-03-01T01:23:49.423Z,3.58
2023-03-01T01:26:20.221Z,2.57
2023-03-01T01:28:48.219Z,4.68
2023-03-01T01:31:16.135Z,2.60
2023-03-01T01:33:43.893Z,2.70
2023-03-01T01:36:11.676Z,3.95
2023-03-01T01:38:39.574Z,4.20
2023-03-01T01:41:07.537Z,7.10
2023-03-01T01:43:36.187Z,6.70
2023-03-01T01:46:07.864Z,6.68
2023-03-01T01:48:44.258Z,25.30
2023-03-01T01:51:13.378Z,17.40
2023-03-01T01:53:41.153Z,13.45
2023-03-01T01:56:09.396Z,11.65
2023-03-01T01:58:37.105Z,6.57
2023-03-01T02:01:04.856Z,4.68
2023-03-01T02:03:38.598Z,5.97
2023-03-01T02:06:14.117Z,7.07
2023-03-01T02:08:42.783Z,5.00
2023-03-01T02:11:10.997Z,2.58
2023-03-01T02:13:38.690Z,3.03
2023-03-01T02:16:07.222Z,3.00
2023-03-01T02:18:35.025Z,2.55
2023-03-01T02:21:21.322Z,1.83
2023-03-01T02:23:49.127Z,1.70
2023-03-01T02:26:27.672Z,2.00
2023-03-01T02:28:55.465Z,2.80
2023-03-01T02:31:41.632Z,2.92
2023-03-01T02:34:10.446Z,2.00
2023-03-01T02:36:39.707Z,1.70
2023-03-01T02:39:08.329Z,1.13
2023-03-01T02:41:40.296Z,1.37
2023-03-01T02:44:08.725Z,3.30
2023-03-01T02:46:37.304Z,3.60
2023-03-01T02:49:18.062Z,3.43
2023-03-01T02:52:16.211Z,2.55
2023-03-01T02:54:46.142Z,1.67
2023-03-01T02:57:13.852Z,2.63
2023-03-01T02:59:41.473Z,2.07
2023-03-01T03:02:09.541Z,2.20
2023-03-01T03:04:37.246Z,1.60
2023-03-01T03:07:05.003Z,2.33
2023-03-01T03:09:32.753Z,3.33
2023-03-01T03:12:00.500Z,1.77
2023-03-01T03:14:28.188Z,1.70
2023-03-01T03:16:55.913Z,4.13
2023-03-01T03:19:23.672Z,2.60
2023-03-01T03:21:51.347Z,1.60
2023-03-01T03:24:19.535Z,1.80
2023-03-01T03:26:48.235Z,1.63
2023-03-01T03:29:16.059Z,2.00
2023-03-01T03:31:43.745Z,1.83
2023-03-01T03:34:19.182Z,2.05
2023-03-01T03:36:47.058Z,4.35
2023-03-01T03:39:14.812Z,4.07
2023-03-01T03:41:42.555Z,4.60
2023-03-01T03:44:10.217Z,5.47
2023-03-01T03:46:37.999Z,5.65
2023-03-01T03:49:05.746Z,2.93
2023-03-01T03:51:33.453Z,2.70
2023-03-01T03:54:01.110Z,3.00
2023-03-01T03:56:29.102Z,4.23
2023-03-01T03:58:56.781Z,2.80
2023-03-01T04:01:24.618Z,3.50
2023-03-01T04:03:55.568Z,2.83
2023-03-01T04:06:23.284Z,2.45
2023-03-01T04:08:52.195Z,2.00
2023-03-01T04:11:29.035Z,3.55
2023-03-01T04:13:57.847Z,3.27
2023-03-01T04:16:25.636Z,3.40
2023-03-01T04:18:54.660Z,4.15
2023-03-01T04:21:22.463Z,2.33
2023-03-01T04:23:53.775Z,2.75
2023-03-01T04:26:21.571Z,2.55
2023-03-01T04:28:51.125Z,1.90
2023-03-01T04:31:22.373Z,2.85
2023-03-01T04:33:52.533Z,1.88
2023-03-01T04:36:20.866Z,2.08
2023-03-01T04:38:48.640Z,1.83
2023-03-01T04:41:17.404Z,2.05
2023-03-01T04:43:45.064Z,1.75
2023-03-01T04:46:15.476Z,1.63
2023-03-01T04:48:44.090Z,1.55
2023-03-01T04:51:15.450Z,1.70
2023-03-01T04:53:43.503Z,1.33
2023-03-01T04:56:11.267Z,1.55
2023-03-01T04:58:38.989Z,1.60
2023-03-01T05:01:16.552Z,1.40
2023-03-01T05:03:48.060Z,1.40
2023-03-01T05:06:15.831Z,1.52
2023-03-01T05:08:43.777Z,1.52
2023-03-01T05:11:11.621Z,1.40
2023-03-01T05:13:39.693Z,1.80
2023-03-01T05:16:07.847Z,1.92
2023-03-01T05:18:36.026Z,1.77
2023-03-01T05:21:10.728Z,1.55
2023-03-01T05:23:38.466Z,1.98
2023-03-01T05:26:09.462Z,1.90
2023-03-01T05:28:39.037Z,1.83
2023-03-01T05:31:10.881Z,1.75
2023-03-01T05:33:39.366Z,1.97
2023-03-01T05:36:08.356Z,1.48
2023-03-01T05:38:36.023Z,1.65
2023-03-01T05:41:03.829Z,2.08
2023-03-01T05:43:35.095Z,1.73
2023-03-01T05:46:02.918Z,1.98
2023-03-01T05:48:30.628Z,1.95
2023-03-01T05:50:59.420Z,1.60
2023-03-01T05:53:27.717Z,1.70
2023-03-01T05:55:55.382Z,1.95
2023-03-01T05:58:23.115Z,1.43
2023-03-01T06:00:52.015Z,1.80
2023-03-01T06:03:20.567Z,2.25
2023-03-01T06:05:48.275Z,1.83
2023-03-01T06:08:16.088Z,1.77
2023-03-01T06:10:43.809Z,1.52
2023-03-01T06:13:11.552Z,2.10
2023-03-01T06:15:39.249Z,2.03
2023-03-01T06:18:07.009Z,2.38
2023-03-01T06:20:34.655Z,2.28
2023-03-01T06:23:02.407Z,1.67
2023-03-01T06:25:30.390Z,1.88
2023-03-01T06:27:58.161Z,2.00
2023-03-01T06:30:26.466Z,2.10
2023-03-01T06:32:54.150Z,2.22
2023-03-01T06:35:22.017Z,1.80
2023-03-01T06:37:49.741Z,1.90
2023-03-01T06:40:17.649Z,2.15
2023-03-01T06:42:45.778Z,2.40
2023-03-01T06:45:13.501Z,2.00
2023-03-01T06:47:41.343Z,2.00
2023-03-01T06:50:09.492Z,2.65
2023-03-01T06:52:37.310Z,3.03
2023-03-01T06:55:05.237Z,2.30
2023-03-01T06:57:32.945Z,2.45
2023-03-01T07:00:00.666Z,2.08
2023-03-01T07:02:28.504Z,2.13
2023-03-01T07:04:56.239Z,2.00
2023-03-01T07:07:23.954Z,1.40
2023-03-01T07:09:51.757Z,1.70
2023-03-01T07:12:20.506Z,2.15
2023-03-01T07:14:48.226Z,2.10
2023-03-01T07:17:15.984Z,2.10
2023-03-01T07:19:43.784Z,1.90
2023-03-01T07:22:11.434Z,1.85
2023-03-01T07:24:39.143Z,1.70
2023-03-01T07:27:06.810Z,2.50
2023-03-01T07:29:34.668Z,2.10
2023-03-01T07:32:02.485Z,2.05
2023-03-01T07:34:30.388Z,2.13
2023-03-01T07:36:58.094Z,2.47
2023-03-01T07:39:25.883Z,3.08
2023-03-01T07:41:53.708Z,3.28
2023-03-01T07:44:21.429Z,3.37
2023-03-01T07:46:49.176Z,2.67
2023-03-01T07:49:16.956Z,2.85
2023-03-01T07:51:45.079Z,3.10
2023-03-01T07:54:12.762Z,2.55
2023-03-01T07:56:41.917Z,3.40
2023-03-01T07:59:09.665Z,3.13
2023-03-01T08:01:37.315Z,3.90
2023-03-01T08:04:39.430Z,3.88
2023-03-01T08:07:16.126Z,3.20
2023-03-01T08:09:43.781Z,4.20
2023-03-01T08:12:11.539Z,4.07
2023-03-01T08:14:39.240Z,4.10
2023-03-01T08:17:06.974Z,4.07
2023-03-01T08:19:35.843Z,3.83
2023-03-01T08:22:04.171Z,5.45
2023-03-01T08:24:31.889Z,5.17
2023-03-01T08:26:59.621Z,5.32
2023-03-01T08:29:27.299Z,4.45
2023-03-01T08:31:55.158Z,4.18
2023-03-01T08:34:22.907Z,4.63
2023-03-01T08:36:55.153Z,5.18
2023-03-01T08:39:22.838Z,5.75
2023-03-01T08:41:50.534Z,5.73
2023-03-01T08:44:18.985Z,5.38
2023-03-01T08:46:47.127Z,4.28
2023-03-01T08:49:15.776Z,6.77
2023-03-01T08:51:43.887Z,6.78
2023-03-01T08:54:16.150Z,7.22
2023-03-01T08:56:43.941Z,7.75
2023-03-01T08:59:12.592Z,7.33
2023-03-01T09:01:41.297Z,8.45
2023-03-01T09:06:36.407Z,8.27
2023-03-01T09:09:04.652Z,7.75
2023-03-01T09:11:32.310Z,8.15
2023-03-01T09:14:00.023Z,6.33
2023-03-01T09:16:27.791Z,8.10
2023-03-01T09:18:55.794Z,8.73
2023-03-01T09:21:37.533Z,6.97
2023-03-01T09:24:06.729Z,9.30
2023-03-01T09:26:34.474Z,7.68
2023-03-01T09:29:02.252Z,7.68
2023-03-01T09:31:29.952Z,7.80
2023-03-01T09:33:57.616Z,8.70
2023-03-01T09:36:30.128Z,8.65
2023-03-01T09:38:59.074Z,8.10
2023-03-01T09:41:30.972Z,7.63
2023-03-01T09:44:00.309Z,7.53
2023-03-01T09:46:28.129Z,7.10
2023-03-01T09:48:59.794Z,7.67
2023-03-01T09:51:34.575Z,7.13
2023-03-01T09:54:05.355Z,7.15
2023-03-01T09:56:40.072Z,7.40
2023-03-01T09:59:07.938Z,8.00
2023-03-01T10:01:54.811Z,7.20
2023-03-01T10:04:37.697Z,8.43
2023-03-01T10:07:11.596Z,7.00
2023-03-01T10:09:40.581Z,7.60
2023-03-01T10:12:12.420Z,7.63
2023-03-01T10:14:41.938Z,7.30
2023-03-01T10:17:15.157Z,7.70
2023-03-01T10:19:43.690Z,7.22
2023-03-01T10:22:24.140Z,6.67
2023-03-01T10:24:52.085Z,7.88
2023-03-01T10:27:39.996Z,6.63
2023-03-01T10:30:13.006Z,5.47
2023-03-01T10:32:40.867Z,5.25
2023-03-01T10:35:18.922Z,6.55
2023-03-01T10:37:59.240Z,5.50
2023-03-01T10:40:27.050Z,4.60
2023-03-01T10:42:54.810Z,5.13
2023-03-01T10:45:31.490Z,5.45
2023-03-01T10:48:18.440Z,4.80
2023-03-01T10:50:47.099Z,4.72
2023-03-01T10:53:25.870Z,5.57
2023-03-01T10:56:04.261Z,5.73
2023-03-01T10:58:32.265Z,5.15
2023-03-01T11:01:01.439Z,4.25
2023-03-01T11:03:36.289Z,5.50
2023-03-01T11:06:08.209Z,5.80
2023-03-01T11:08:36.027Z,4.57
2023-03-01T11:11:22.643Z,3.97
2023-03-01T11:13:54.747Z,4.17
2023-03-01T11:16:26.590Z,3.83
2023-03-01T11:19:23.691Z,3.92
2023-03-01T11:22:02.306Z,3.40
2023-03-01T11:25:00.069Z,4.78
2023-03-01T11:27:35.194Z,4.78
2023-03-01T11:30:06.513Z,4.53
2023-03-01T11:32:40.626Z,4.20
2023-03-01T11:35:22.660Z,5.43
2023-03-01T11:37:56.204Z,5.97
2023-03-01T11:40:31.941Z,5.60
2023-03-01T11:43:08.830Z,4.25
2023-03-01T11:45:51.760Z,4.18
2023-03-01T11:48:25.233Z,6.03
2023-03-01T11:50:54.075Z,5.35
2023-03-01T11:53:21.707Z,5.28
2023-03-01T11:55:54.355Z,3.78
2023-03-01T11:58:22.045Z,4.03
2023-03-01T12:00:49.790Z,3.88
2023-03-01T12:03:32.637Z,3.92
2023-03-01T12:06:04.609Z,4.27
2023-03-01T12:08:51.026Z,4.90
2023-03-01T12:11:37.066Z,3.80
2023-03-01T12:14:11.939Z,3.10
2023-03-01T12:16:49.176Z,4.30
2023-03-01T12:19:16.962Z,3.50
2023-03-01T12:21:55.395Z,3.80
2023-03-01T12:24:23.797Z,3.40
2023-03-01T12:27:04.693Z,3.90
2023-03-01T12:29:58.708Z,3.03
2023-03-01T12:32:26.566Z,3.80
2023-03-01T12:35:13.805Z,3.53
2023-03-01T12:37:48.647Z,3.60
2023-03-01T12:40:28.623Z,3.40
2023-03-01T12:43:09.570Z,3.25
2023-03-01T12:45:43.415Z,3.65
2023-03-01T12:48:17.138Z,3.63
2023-03-01T12:50:45.975Z,3.30
2023-03-01T12:53:27.348Z,3.83
2023-03-01T12:55:55.790Z,3.80
2023-03-01T12:58:49.646Z,3.73
2023-03-01T13:01:21.916Z,4.40
2023-03-01T13:04:08.826Z,5.07
2023-03-01T13:06:43.860Z,4.43
2023-03-01T13:09:31.366Z,2.83
2023-03-01T13:11:59.266Z,4.00
2023-03-01T13:14:27.037Z,3.88
2023-03-01T13:16:54.853Z,3.40
2023-03-01T13:19:33.473Z,4.10
2023-03-01T13:22:01.175Z,4.00
2023-03-01T13:24:28.892Z,3.47
2023-03-01T13:46:46.067Z,4.15
2023-03-01T13:57:02.768Z,3.38
2023-03-01T13:59:49.808Z,2.77
2023-03-01T14:18:19.085Z,4.72
2023-03-01T14:59:59.451Z,6.03
2023-03-01T15:18:05.950Z,5.80
2023-03-01T15:46:55.755Z,5.20
2023-03-01T16:27:17.755Z,4.73
2023-03-01T16:30:23.367Z,4.15
2023-03-01T17:04:29.695Z,2.27
2023-03-01T17:06:57.500Z,3.00
2023-03-01T17:16:43.420Z,2.42
2023-03-01T17:19:11.807Z,2.08
2023-03-01T17:21:39.525Z,2.33
2023-03-01T17:24:07.442Z,1.80
2023-03-01T17:26:35.269Z,2.20
2023-03-01T17:29:03.925Z,2.10
2023-03-01T17:31:32.242Z,2.20
2023-03-01T17:34:01.640Z,1.83
2023-03-01T17:36:30.023Z,2.20
2023-03-01T17:38:57.838Z,3.10
2023-03-01T17:41:25.722Z,2.28
2023-03-01T17:43:53.757Z,2.38
2023-03-01T17:46:22.333Z,2.80
2023-03-01T17:48:50.191Z,1.87
2023-03-01T17:51:19.475Z,2.25
2023-03-01T17:53:47.281Z,2.53
2023-03-01T17:56:15.114Z,2.77
2023-03-01T17:58:42.880Z,2.95
2023-03-01T18:01:14.822Z,2.67
2023-03-01T18:03:42.968Z,2.00
2023-03-01T18:06:20.777Z,1.50
2023-03-01T18:08:50.796Z,2.05
2023-03-01T18:11:19.089Z,1.95
2023-03-01T18:13:47.796Z,1.83
2023-03-01T18:16:17.398Z,1.35
2023-03-01T18:18:48.264Z,1.52
2023-03-01T18:21:16.259Z,1.03
2023-03-01T18:23:44.196Z,0.90
2023-03-01T18:26:12.709Z,1.15
2023-03-01T18:28:40.516Z,1.00
2023-03-01T18:31:08.976Z,0.93
2023-03-01T18:33:36.802Z,1.30
2023-03-01T18:36:05.142Z,1.38
2023-03-01T18:38:33.104Z,0.87
2023-03-01T18:41:04.026Z,1.65
2023-03-01T18:43:33.070Z,1.67
2023-03-01T18:46:01.196Z,1.37
2023-03-01T18:48:30.185Z,3.13
2023-03-01T18:50:58.209Z,2.38
2023-03-01T18:53:26.127Z,1.43
2023-03-01T18:55:53.818Z,1.42
2023-03-01T18:58:21.619Z,1.55
2023-03-01T19:00:49.351Z,1.90
2023-03-01T19:05:59.307Z,1.55
2023-03-01T19:08:27.396Z,2.33
2023-03-01T19:10:58.568Z,1.07
2023-03-01T19:13:26.463Z,0.73
2023-03-01T19:15:54.535Z,1.65
2023-03-01T19:18:26.130Z,1.40
2023-03-01T19:21:03.618Z,1.30
2023-03-01T19:23:36.651Z,0.68
2023-03-01T19:26:06.782Z,1.30
2023-03-01T19:28:35.711Z,1.30
2023-03-01T19:31:05.693Z,2.15
2023-03-01T19:33:34.725Z,2.28
2023-03-01T19:36:03.947Z,1.60
2023-03-01T19:38:33.997Z,2.10
2023-03-01T19:41:05.378Z,1.35
2023-03-01T19:43:33.189Z,2.37
2023-03-01T19:46:00.976Z,2.25
2023-03-01T19:48:28.983Z,1.63
2023-03-01T19:50:56.718Z,3.38
2023-03-01T19:53:25.090Z,1.97
2023-03-01T19:55:58.325Z,1.52
2023-03-01T19:58:27.267Z,1.63
2023-03-01T20:01:01.481Z,1.83
2023-03-01T20:03:29.927Z,2.10
2023-03-01T20:05:58.682Z,1.27
2023-03-01T20:08:26.736Z,1.85
2023-03-01T20:10:54.655Z,2.83
2023-03-01T20:13:23.413Z,1.83
2023-03-01T20:15:51.494Z,2.30
2023-03-01T20:18:19.296Z,2.10
2023-03-01T20:20:49.608Z,2.10
2023-03-01T20:23:22.024Z,2.83
2023-03-01T20:25:50.113Z,1.83
2023-03-01T20:28:26.369Z,3.45
2023-03-01T20:31:04.115Z,2.60
2023-03-01T20:33:32.045Z,3.45
2023-03-01T20:35:59.964Z,3.88
2023-03-01T20:38:27.918Z,4.18
2023-03-01T20:41:01.689Z,3.43
2023-03-01T20:43:29.486Z,4.07
2023-03-01T20:45:57.247Z,3.50
2023-03-01T20:48:25.061Z,3.20
2023-03-01T20:50:52.793Z,2.00
2023-03-01T20:53:20.554Z,2.50
2023-03-01T20:55:48.249Z,2.10
2023-03-01T20:58:16.006Z,1.83
2023-03-01T21:00:44.350Z,2.70
2023-03-01T21:03:12.369Z,2.13
2023-03-01T21:05:41.214Z,0.80
2023-03-01T21:08:09.095Z,2.30
2023-03-01T21:10:36.863Z,1.08
2023-03-01T21:13:04.589Z,2.83
2023-03-01T21:15:32.387Z,1.58
2023-03-01T21:18:00.137Z,1.27
2023-03-01T21:20:28.836Z,1.20
2023-03-01T21:22:56.560Z,2.55
2023-03-01T21:25:26.640Z,2.10
2023-03-01T21:27:54.390Z,1.52
2023-03-01T21:30:22.170Z,1.37
2023-03-01T21:32:50.013Z,1.65
2023-03-01T21:35:17.997Z,1.90
2023-03-01T21:37:45.806Z,2.30
2023-03-01T21:40:13.927Z,1.58
2023-03-01T21:42:50.681Z,2.25
2023-03-01T21:45:19.477Z,2.83
2023-03-01T21:47:47.908Z,2.50
2023-03-01T21:50:15.779Z,3.33
2023-03-01T21:52:43.687Z,2.33
2023-03-01T21:55:13.041Z,3.00
2023-03-01T21:57:44.382Z,2.63
2023-03-01T22:00:13.326Z,2.80
2023-03-01T22:02:41.156Z,3.60
2023-03-01T22:05:09.266Z,3.30
2023-03-01T22:07:37.170Z,3.70
2023-03-01T22:10:05.104Z,3.17
2023-03-01T22:12:32.837Z,2.10
2023-03-01T22:15:00.697Z,3.50
2023-03-01T22:17:29.603Z,2.72
2023-03-01T22:19:57.397Z,2.50
2023-03-01T22:22:25.134Z,3.35
2023-03-01T22:24:52.900Z,2.00
2023-03-01T22:27:20.654Z,2.73
2023-03-01T22:29:48.420Z,1.92
2023-03-01T22:32:16.326Z,2.35
2023-03-01T22:34:44.225Z,1.00
2023-03-01T22:37:12.044Z,1.10
2023-03-01T22:39:39.885Z,1.30
2023-03-01T22:42:07.666Z,0.90
2023-03-01T22:44:35.506Z,1.40
2023-03-01T22:47:03.448Z,1.20
2023-03-01T22:49:31.127Z,1.05
2023-03-01T22:52:00.417Z,0.87
2023-03-01T22:54:28.943Z,1.13
2023-03-01T22:56:56.996Z,1.30
2023-03-01T22:59:24.869Z,1.50
2023-03-01T23:01:52.861Z,0.90
2023-03-01T23:04:21.026Z,1.20
2023-03-01T23:06:54.113Z,1.50
2023-03-01T23:09:30.858Z,0.63
2023-03-01T23:11:58.944Z,1.13
2023-03-01T23:14:27.038Z,1.50
2023-03-01T23:16:54.829Z,1.00
2023-03-01T23:19:22.797Z,1.23
2023-03-01T23:21:50.703Z,1.15
2023-03-01T23:24:18.991Z,0.80
2023-03-01T23:26:50.554Z,0.70
2023-03-01T23:29:18.401Z,0.65
2023-03-01T23:31:46.224Z,1.25
2023-03-01T23:34:14.282Z,1.10
2023-03-01T23:36:45.093Z,0.90
2023-03-01T23:39:13.296Z,1.13
2023-03-01T23:41:41.058Z,1.30
2023-03-01T23:44:08.830Z,1.50
2023-03-01T23:46:37.043Z,1.05
2023-03-01T23:49:04.914Z,1.17
2023-03-01T23:51:32.783Z,1.48
2023-03-01T23:54:05.567Z,1.23
2023-03-01T23:56:34.532Z,1.20
2023-03-01T23:59:03.237Z,1.40
